createdAt,value
2018-09-04T00:02:08.603Z,56.20
2018-09-04T00:04:36.982Z,55.70
2018-09-04T00:07:05.391Z,55.40
2018-09-04T00:09:33.798Z,55.10
2018-09-04T00:12:02.424Z,55.00
2018-09-04T00:14:31.021Z,54.70
2018-09-04T00:16:59.258Z,54.90
2018-09-04T00:19:27.550Z,54.80
2018-09-04T00:21:56.119Z,55.00
2018-09-04T00:24:24.441Z,54.60
2018-09-04T00:26:52.633Z,54.80
2018-09-04T00:29:20.880Z,54.80
2018-09-04T00:31:49.237Z,54.80
2018-09-04T00:34:17.548Z,55.10
2018-09-04T00:36:45.983Z,55.60
2018-09-04T00:39:14.249Z,55.60
2018-09-04T00:41:42.418Z,55.60
2018-09-04T00:44:10.657Z,55.50
2018-09-04T00:46:38.902Z,55.90
2018-09-04T00:49:07.083Z,55.70
2018-09-04T00:51:35.246Z,55.40
2018-09-04T00:54:03.464Z,55.30
2018-09-04T00:56:31.966Z,55.20
2018-09-04T00:59:00.243Z,55.90
2018-09-04T01:01:28.425Z,55.60
2018-09-04T01:03:57.595Z,55.70
2018-09-04T01:06:25.908Z,55.50
2018-09-04T01:08:55.244Z,55.90
2018-09-04T01:11:23.413Z,56.10
2018-09-04T01:13:51.612Z,55.80
2018-09-04T01:16:19.890Z,55.50
2018-09-04T01:18:56.825Z,55.10
2018-09-04T01:21:25.273Z,54.90
2018-09-04T01:23:53.478Z,54.90
2018-09-04T01:26:21.729Z,54.80
2018-09-04T01:28:49.898Z,55.10
2018-09-04T01:31:18.583Z,54.90
2018-09-04T01:33:46.736Z,54.80
2018-09-04T01:36:14.936Z,54.70
2018-09-04T01:38:43.093Z,54.60
2018-09-04T01:41:11.350Z,54.70
2018-09-04T01:43:39.581Z,54.70
2018-09-04T01:46:07.821Z,55.00
2018-09-04T01:48:36.026Z,55.00
2018-09-04T01:51:04.323Z,55.20
2018-09-04T01:53:32.515Z,55.60
2018-09-04T01:56:00.737Z,55.60
2018-09-04T01:58:28.934Z,55.30
2018-09-04T02:00:57.141Z,55.30
2018-09-04T02:03:25.468Z,55.40
2018-09-04T02:05:53.693Z,55.10
2018-09-04T02:08:21.980Z,55.10
2018-09-04T02:10:50.227Z,55.30
2018-09-04T02:13:18.457Z,55.00
2018-09-04T02:15:46.731Z,54.90
2018-09-04T02:18:14.910Z,55.00
2018-09-04T02:20:43.069Z,55.20
2018-09-04T02:23:11.351Z,54.60
2018-09-04T02:25:40.321Z,54.40
2018-09-04T02:28:08.573Z,54.20
2018-09-04T02:30:36.971Z,54.20
2018-09-04T02:33:05.420Z,54.20
2018-09-04T02:35:33.747Z,54.20
2018-09-04T02:38:02.746Z,53.90
2018-09-04T02:40:30.931Z,53.80
2018-09-04T02:42:59.213Z,53.50
2018-09-04T02:45:27.398Z,53.40
2018-09-04T02:47:56.465Z,53.50
2018-09-04T02:50:25.681Z,53.70
2018-09-04T02:52:54.219Z,53.60
2018-09-04T02:55:22.433Z,53.50
2018-09-04T02:57:50.632Z,53.70
2018-09-04T03:00:19.509Z,53.70
2018-09-04T03:02:47.991Z,53.80
2018-09-04T03:05:16.194Z,53.80
2018-09-04T03:07:44.498Z,53.50
2018-09-04T03:10:12.685Z,53.50
2018-09-04T03:12:41.982Z,53.80
2018-09-04T03:15:10.462Z,55.10
2018-09-04T03:17:38.686Z,54.80
2018-09-04T03:20:06.891Z,54.90
2018-09-04T03:22:35.197Z,55.10
2018-09-04T03:25:03.513Z,55.30
2018-09-04T03:27:32.217Z,55.50
2018-09-04T03:30:00.450Z,55.70
2018-09-04T03:32:28.778Z,55.70
2018-09-04T03:34:57.238Z,55.60
2018-09-04T03:37:25.629Z,55.60
2018-09-04T03:39:53.834Z,55.60
2018-09-04T03:42:22.144Z,55.80
2018-09-04T03:44:50.277Z,55.90
2018-09-04T03:47:18.571Z,55.90
2018-09-04T03:49:46.795Z,56.40
2018-09-04T03:52:15.262Z,56.50
2018-09-04T03:54:43.543Z,56.20
2018-09-04T03:57:12.823Z,56.30
2018-09-04T03:59:41.349Z,56.20
2018-09-04T04:02:09.622Z,56.10
2018-09-04T04:04:37.854Z,55.90
2018-09-04T04:07:06.097Z,56.20
2018-09-04T04:09:34.483Z,56.30
2018-09-04T04:12:03.783Z,56.40
2018-09-04T04:14:32.249Z,56.50
2018-09-04T04:17:00.709Z,56.20
2018-09-04T04:19:28.914Z,56.30
2018-09-04T04:21:57.165Z,56.60
2018-09-04T04:24:25.587Z,56.80
2018-09-04T04:26:53.898Z,57.00
2018-09-04T04:29:22.122Z,56.80
2018-09-04T04:31:50.350Z,56.60
2018-09-04T04:34:19.216Z,56.60
2018-09-04T04:36:48.056Z,56.60
2018-09-04T04:39:16.245Z,56.70
2018-09-04T04:41:44.446Z,56.90
2018-09-04T04:44:12.650Z,57.10
2018-09-04T04:46:41.850Z,57.10
2018-09-04T04:49:10.066Z,57.00
2018-09-04T04:51:38.276Z,56.80
2018-09-04T04:54:06.482Z,57.00
2018-09-04T04:56:34.951Z,56.90
2018-09-04T04:59:04.325Z,56.50
2018-09-04T05:01:33.906Z,56.20
2018-09-04T05:04:03.178Z,56.20
2018-09-04T05:06:31.396Z,56.00
2018-09-04T05:08:59.882Z,56.00
2018-09-04T05:11:28.140Z,55.70
2018-09-04T05:13:56.434Z,55.60
2018-09-04T05:16:25.326Z,55.60
2018-09-04T05:18:53.614Z,55.60
2018-09-04T05:21:21.880Z,55.40
2018-09-04T05:23:50.090Z,55.40
2018-09-04T05:26:18.966Z,55.80
2018-09-04T05:28:47.234Z,55.90
2018-09-04T05:31:15.434Z,55.40
2018-09-04T05:33:44.958Z,55.00
2018-09-04T05:36:13.394Z,54.80
2018-09-04T05:38:41.694Z,54.60
2018-09-04T05:41:10.327Z,54.70
2018-09-04T05:43:42.038Z,55.10
2018-09-04T05:46:13.194Z,54.90
2018-09-04T05:48:41.574Z,55.20
2018-09-04T05:51:09.845Z,54.80
2018-09-04T05:53:38.114Z,54.80
2018-09-04T05:56:06.490Z,54.80
2018-09-04T05:58:35.098Z,54.40
2018-09-04T06:01:03.988Z,54.10
2018-09-04T06:03:32.897Z,53.80
2018-09-04T06:06:01.145Z,53.50
2018-09-04T06:08:29.350Z,53.40
2018-09-04T06:10:57.577Z,53.40
2018-09-04T06:13:26.822Z,53.40
2018-09-04T06:15:55.202Z,53.50
2018-09-04T06:18:23.471Z,53.30
2018-09-04T06:20:51.672Z,53.10
2018-09-04T06:23:19.893Z,53.10
2018-09-04T06:25:48.134Z,53.30
2018-09-04T06:28:16.342Z,53.20
2018-09-04T06:30:44.530Z,52.70
2018-09-04T06:33:12.817Z,52.50
2018-09-04T06:35:41.233Z,53.10
2018-09-04T06:38:09.750Z,53.00
2018-09-04T06:40:37.963Z,52.90
2018-09-04T06:43:06.165Z,52.90
2018-09-04T06:45:34.478Z,53.00
2018-09-04T06:48:03.098Z,52.60
2018-09-04T06:50:31.289Z,52.40
2018-09-04T06:52:59.491Z,52.50
2018-09-04T06:55:28.147Z,52.50
2018-09-04T06:57:56.651Z,52.30
2018-09-04T07:00:24.882Z,51.90
2018-09-04T07:02:53.102Z,52.30
2018-09-04T07:05:21.314Z,52.00
2018-09-04T07:07:49.669Z,52.10
2018-09-04T07:10:17.902Z,52.50
2018-09-04T07:12:46.123Z,51.50
2018-09-04T07:15:14.329Z,51.50
2018-09-04T07:17:42.542Z,51.30
2018-09-04T07:20:11.052Z,51.30
2018-09-04T07:22:39.730Z,51.40
2018-09-04T07:25:07.947Z,51.60
2018-09-04T07:27:36.193Z,51.70
2018-09-04T07:30:04.945Z,51.50
2018-09-04T07:32:33.306Z,51.80
2018-09-04T07:35:01.547Z,51.60
2018-09-04T07:37:29.813Z,51.60
2018-09-04T07:39:58.413Z,50.80
2018-09-04T07:42:26.788Z,51.00
2018-09-04T07:44:55.012Z,50.80
2018-09-04T07:47:23.247Z,50.70
2018-09-04T07:49:51.484Z,50.90
2018-09-04T07:52:19.737Z,50.60
2018-09-04T07:54:48.764Z,50.90
2018-09-04T07:57:17.001Z,50.80
2018-09-04T07:59:45.215Z,51.00
2018-09-04T08:02:13.425Z,50.90
2018-09-04T08:04:41.851Z,50.80
2018-09-04T08:07:10.844Z,50.40
2018-09-04T08:09:39.074Z,50.60
2018-09-04T08:12:08.152Z,50.30
2018-09-04T08:14:36.617Z,50.30
2018-09-04T08:17:05.744Z,50.20
2018-09-04T08:19:34.197Z,49.70
2018-09-04T08:22:02.788Z,50.10
2018-09-04T08:24:30.988Z,49.60
2018-09-04T08:26:59.384Z,50.60
2018-09-04T08:29:27.678Z,49.80
2018-09-04T08:31:56.182Z,50.10
2018-09-04T08:34:24.474Z,49.10
2018-09-04T08:36:52.714Z,49.50
2018-09-04T08:39:21.017Z,49.00
2018-09-04T08:41:49.635Z,49.40
2018-09-04T08:44:17.890Z,48.80
2018-09-04T08:46:46.138Z,48.20
2018-09-04T08:49:14.381Z,48.00
2018-09-04T08:51:42.829Z,47.60
2018-09-04T08:54:11.006Z,47.60
2018-09-04T08:56:39.198Z,46.90
2018-09-04T08:59:07.490Z,46.40
2018-09-04T09:01:35.698Z,45.50
2018-09-04T09:04:04.552Z,46.60
2018-09-04T09:06:33.019Z,45.90
2018-09-04T09:09:01.215Z,45.90
2018-09-04T09:11:29.438Z,46.00
2018-09-04T09:13:57.626Z,46.30
2018-09-04T09:16:27.131Z,46.30
2018-09-04T09:18:55.457Z,46.60
2018-09-04T09:21:23.657Z,46.30
2018-09-04T09:23:51.838Z,46.00
2018-09-04T09:26:20.539Z,46.00
2018-09-04T09:28:49.187Z,46.00
2018-09-04T09:31:18.210Z,46.40
2018-09-04T09:33:46.771Z,45.10
2018-09-04T09:36:14.949Z,45.10
2018-09-04T09:38:43.159Z,42.50
2018-09-04T09:41:11.745Z,40.20
2018-09-04T09:43:40.006Z,39.90
2018-09-04T09:46:08.185Z,40.00
2018-09-04T09:48:41.090Z,41.00
2018-09-04T09:51:10.186Z,41.40
2018-09-04T09:53:39.060Z,40.60
2018-09-04T09:56:07.673Z,40.90
2018-09-04T09:58:35.790Z,40.90
2018-09-04T10:01:09.814Z,41.10
2018-09-04T10:03:43.973Z,40.00
2018-09-04T10:06:12.351Z,34.90
2018-09-04T10:08:40.718Z,31.00
2018-09-04T10:11:10.386Z,30.10
2018-09-04T10:13:38.571Z,30.10
2018-09-04T10:16:06.786Z,32.10
2018-09-04T10:18:35.269Z,31.50
2018-09-04T10:21:03.499Z,33.50
2018-09-04T10:23:31.998Z,34.00
2018-09-04T10:26:00.190Z,34.20
2018-09-04T10:28:28.389Z,35.00
2018-09-04T10:30:57.738Z,35.50
2018-09-04T10:33:26.154Z,35.60
2018-09-04T10:35:54.344Z,35.40
2018-09-04T10:38:26.402Z,34.00
2018-09-04T10:40:59.749Z,30.60
2018-09-04T10:43:29.845Z,30.10
2018-09-04T10:46:04.067Z,30.30
2018-09-04T10:48:37.813Z,30.00
2018-09-04T10:51:06.303Z,28.80
2018-09-04T10:53:34.742Z,29.60
2018-09-04T10:56:03.015Z,30.60
2018-09-04T10:58:31.390Z,30.30
2018-09-04T11:00:59.803Z,30.30
2018-09-04T11:03:28.058Z,30.10
2018-09-04T11:05:56.491Z,30.30
2018-09-04T11:08:24.724Z,30.60
2018-09-04T11:10:52.969Z,31.80
2018-09-04T11:13:21.139Z,31.30
2018-09-04T11:15:49.457Z,32.30
2018-09-04T11:18:17.793Z,32.20
2018-09-04T11:20:46.010Z,32.20
2018-09-04T11:23:14.214Z,31.40
2018-09-04T11:25:42.443Z,32.10
2018-09-04T11:28:10.764Z,32.10
2018-09-04T11:30:39.054Z,31.40
2018-09-04T11:33:07.214Z,30.60
2018-09-04T11:35:35.475Z,31.20
2018-09-04T11:38:03.749Z,30.80
2018-09-04T11:40:32.099Z,30.90
2018-09-04T11:43:00.455Z,29.80
2018-09-04T11:45:28.649Z,29.50
2018-09-04T11:47:58.780Z,28.60
2018-09-04T11:50:27.387Z,28.70
2018-09-04T11:52:55.706Z,29.00
2018-09-04T11:55:24.304Z,29.60
2018-09-04T11:57:52.562Z,30.10
2018-09-04T12:00:26.490Z,28.50
2018-09-04T12:02:55.080Z,29.10
2018-09-04T12:05:23.258Z,28.30
2018-09-04T12:07:51.495Z,27.90
2018-09-04T12:10:19.810Z,28.00
2018-09-04T12:12:48.126Z,27.60
2018-09-04T12:15:16.252Z,27.30
2018-09-04T12:17:44.503Z,26.10
2018-09-04T12:20:26.700Z,24.80
2018-09-04T12:22:55.445Z,23.30
2018-09-04T12:25:24.878Z,21.80
2018-09-04T12:27:53.119Z,20.70
2018-09-04T12:30:21.362Z,20.20
2018-09-04T12:32:49.649Z,20.10
2018-09-04T12:35:17.903Z,19.30
2018-09-04T12:37:46.372Z,19.30
2018-09-04T12:40:14.611Z,17.70
2018-09-04T12:42:42.850Z,18.20
2018-09-04T12:45:11.224Z,18.60
2018-09-04T12:47:39.455Z,20.00
2018-09-04T12:50:07.870Z,21.20
2018-09-04T12:52:36.113Z,21.70
2018-09-04T12:55:04.610Z,22.80
2018-09-04T12:57:33.338Z,23.20
2018-09-04T13:00:01.534Z,23.90
2018-09-04T13:02:29.787Z,24.50
2018-09-04T13:04:57.979Z,25.30
2018-09-04T13:07:26.317Z,26.10
2018-09-04T13:09:54.874Z,26.00
2018-09-04T13:12:23.167Z,26.40
2018-09-04T13:14:51.491Z,26.50
2018-09-04T13:17:19.786Z,26.80
2018-09-04T13:19:48.059Z,27.60
2018-09-04T13:22:16.303Z,27.70
2018-09-04T13:24:44.518Z,27.70
2018-09-04T13:27:12.731Z,27.50
2018-09-04T13:29:41.119Z,28.00
2018-09-04T13:32:09.374Z,27.70
2018-09-04T13:34:37.590Z,28.00
2018-09-04T13:37:05.842Z,28.50
2018-09-04T13:39:34.095Z,29.20
2018-09-04T13:42:02.361Z,28.80
2018-09-04T13:44:30.662Z,29.00
2018-09-04T13:46:58.882Z,28.80
2018-09-04T13:49:27.216Z,28.40
2018-09-04T13:51:55.427Z,28.40
2018-09-04T13:54:23.627Z,28.40
2018-09-04T13:56:51.895Z,28.50
2018-09-04T13:59:57.870Z,28.70
2018-09-04T14:02:26.314Z,28.10
2018-09-04T14:04:54.514Z,27.90
2018-09-04T14:07:22.853Z,28.00
2018-09-04T14:09:51.035Z,28.60
2018-09-04T14:12:19.292Z,29.60
2018-09-04T14:14:47.492Z,29.20
2018-09-04T14:17:17.890Z,29.80
2018-09-04T14:19:46.093Z,29.60
2018-09-04T14:22:14.859Z,29.80
2018-09-04T14:24:43.063Z,30.00
2018-09-04T14:27:11.354Z,30.40
2018-09-04T14:29:53.964Z,29.70
2018-09-04T14:32:08.089Z,28.70
2018-09-04T14:34:36.282Z,26.90
2018-09-04T14:37:04.887Z,26.30
2018-09-04T14:39:33.314Z,26.10
2018-09-04T14:42:01.598Z,25.40
2018-09-04T14:44:29.761Z,25.00
2018-09-04T14:46:57.961Z,25.50
2018-09-04T14:49:26.253Z,25.30
2018-09-04T14:51:55.736Z,25.10
2018-09-04T14:54:23.941Z,25.60
2018-09-04T14:56:52.200Z,26.00
2018-09-04T14:59:20.366Z,26.60
2018-09-04T15:01:48.763Z,27.50
2018-09-04T15:04:16.980Z,28.10
2018-09-04T15:06:45.271Z,28.70
2018-09-04T15:09:13.651Z,29.00
2018-09-04T15:11:42.009Z,28.50
2018-09-04T15:14:10.413Z,28.10
2018-09-04T15:16:38.606Z,28.10
2018-09-04T15:19:06.841Z,27.50
2018-09-04T15:21:35.097Z,26.20
2018-09-04T15:24:03.809Z,25.40
2018-09-04T15:26:32.206Z,25.10
2018-09-04T15:29:00.414Z,25.30
2018-09-04T15:31:28.634Z,25.40
2018-09-04T15:33:56.895Z,25.50
2018-09-04T15:36:25.273Z,25.00
2018-09-04T15:38:53.443Z,25.60
2018-09-04T15:41:21.649Z,26.10
2018-09-04T15:43:50.655Z,25.80
2018-09-04T15:46:19.147Z,26.10
2018-09-04T15:48:51.593Z,26.10
2018-09-04T15:51:19.938Z,26.70
2018-09-04T15:53:48.142Z,26.60
2018-09-04T15:56:16.379Z,27.70
2018-09-04T15:58:44.611Z,27.20
2018-09-04T16:01:17.727Z,27.10
2018-09-04T16:03:45.928Z,26.90
2018-09-04T16:06:14.122Z,26.70
2018-09-04T16:08:42.576Z,27.30
2018-09-04T16:11:10.741Z,27.40
2018-09-04T16:13:38.951Z,28.30
2018-09-04T16:16:07.222Z,28.90
2018-09-04T16:18:35.381Z,28.90
2018-09-04T16:21:03.639Z,29.20
2018-09-04T16:23:31.823Z,29.50
2018-09-04T16:26:00.011Z,30.50
2018-09-04T16:28:28.186Z,30.70
2018-09-04T16:30:56.555Z,31.20
2018-09-04T16:33:24.838Z,30.50
2018-09-04T16:35:53.025Z,31.00
2018-09-04T16:38:21.195Z,31.40
2018-09-04T16:40:50.370Z,31.80
2018-09-04T16:43:18.677Z,31.70
2018-09-04T16:45:46.873Z,31.80
2018-09-04T16:48:15.081Z,31.50
2018-09-04T16:50:43.575Z,31.90
2018-09-04T16:53:11.973Z,32.40
2018-09-04T16:55:40.162Z,32.50
2018-09-04T16:58:08.411Z,32.90
2018-09-04T17:00:36.598Z,33.10
2018-09-04T17:03:04.897Z,33.60
2018-09-04T17:05:33.338Z,34.20
2018-09-04T17:08:01.614Z,34.20
2018-09-04T17:10:30.530Z,34.40
2018-09-04T17:12:58.799Z,35.10
2018-09-04T17:15:27.061Z,35.30
2018-09-04T17:17:55.347Z,36.10
2018-09-04T17:20:23.541Z,36.60
2018-09-04T17:22:51.872Z,36.30
2018-09-04T17:25:20.178Z,36.50
2018-09-04T17:27:49.055Z,37.00
2018-09-04T17:30:17.369Z,37.10
2018-09-04T17:32:45.549Z,37.80
2018-09-04T17:35:13.775Z,38.10
2018-09-04T17:37:42.039Z,38.30
2018-09-04T17:40:10.246Z,38.20
2018-09-04T17:45:05.767Z,38.50
2018-09-04T17:47:34.408Z,38.20
2018-09-04T17:50:02.674Z,38.40
2018-09-04T17:52:31.045Z,38.40
2018-09-04T17:54:59.432Z,38.60
2018-09-04T17:57:28.042Z,38.60
2018-09-04T17:59:56.550Z,38.30
2018-09-04T18:02:25.912Z,38.60
2018-09-04T18:04:54.195Z,38.50
2018-09-04T18:07:22.524Z,39.00
2018-09-04T18:09:50.999Z,39.30
2018-09-04T18:12:19.279Z,39.80
2018-09-04T18:14:47.961Z,39.80
2018-09-04T18:17:16.343Z,39.80
2018-09-04T18:19:44.541Z,40.00
2018-09-04T18:22:12.795Z,40.20
2018-09-04T18:24:41.046Z,40.10
2018-09-04T18:27:09.323Z,40.20
2018-09-04T18:29:37.597Z,40.50
2018-09-04T18:32:05.894Z,40.60
2018-09-04T18:34:34.724Z,40.30
2018-09-04T18:37:03.143Z,40.40
2018-09-04T18:39:31.438Z,40.60
2018-09-04T18:42:00.932Z,40.60
2018-09-04T18:44:29.333Z,41.40
2018-09-04T18:46:58.122Z,41.70
2018-09-04T18:49:27.353Z,41.70
2018-09-04T18:51:55.678Z,42.20
2018-09-04T18:54:23.950Z,42.50
2018-09-04T18:56:52.146Z,43.00
2018-09-04T18:59:20.378Z,43.00
2018-09-04T19:01:48.590Z,43.10
2018-09-04T19:04:16.780Z,43.80
2018-09-04T19:06:45.020Z,43.80
2018-09-04T19:09:13.174Z,43.80
2018-09-04T19:11:41.696Z,43.80
2018-09-04T19:14:09.920Z,43.80
2018-09-04T19:16:38.144Z,44.30
2018-09-04T19:19:06.334Z,44.40
2018-09-04T19:21:34.711Z,44.50
2018-09-04T19:24:02.987Z,44.30
2018-09-04T19:26:31.258Z,44.80
2018-09-04T19:28:59.435Z,44.90
2018-09-04T19:31:27.878Z,44.50
2018-09-04T19:33:56.227Z,44.50
2018-09-04T19:36:24.434Z,44.80
2018-09-04T19:38:52.645Z,44.60
2018-09-04T19:41:20.907Z,45.10
2018-09-04T19:43:49.442Z,45.10
2018-09-04T19:46:17.892Z,45.10
2018-09-04T19:48:46.089Z,45.10
2018-09-04T19:51:14.255Z,45.30
2018-09-04T19:53:42.814Z,45.50
2018-09-04T19:56:11.613Z,45.70
2018-09-04T19:58:39.953Z,45.70
2018-09-04T20:01:08.570Z,45.80
2018-09-04T20:03:36.910Z,46.10
2018-09-04T20:06:05.438Z,46.10
2018-09-04T20:08:34.025Z,46.40
2018-09-04T20:11:02.302Z,46.40
2018-09-04T20:13:30.546Z,46.40
2018-09-04T20:15:58.700Z,46.30
2018-09-04T20:18:27.020Z,46.20
2018-09-04T20:20:55.278Z,46.10
2018-09-04T20:23:23.573Z,46.30
2018-09-04T20:25:51.841Z,46.20
2018-09-04T20:28:20.255Z,46.50
2018-09-04T20:30:48.717Z,46.70
2018-09-04T20:33:16.960Z,46.50
2018-09-04T20:35:45.663Z,46.60
2018-09-04T20:38:13.980Z,46.60
2018-09-04T20:40:42.601Z,46.80
2018-09-04T20:43:11.898Z,47.00
2018-09-04T20:45:40.253Z,47.10
2018-09-04T20:48:08.590Z,47.00
2018-09-04T20:50:36.774Z,46.90
2018-09-04T20:53:05.415Z,46.80
2018-09-04T20:55:33.622Z,46.60
2018-09-04T20:58:13.206Z,46.80
2018-09-04T21:00:53.119Z,46.70
2018-09-04T21:03:32.690Z,46.80
2018-09-04T21:06:12.117Z,46.80
2018-09-04T21:08:51.407Z,46.70
2018-09-04T21:11:19.938Z,46.80
2018-09-04T21:13:48.378Z,47.30
2018-09-04T21:16:16.596Z,47.70
2018-09-04T21:18:44.857Z,47.80
2018-09-04T21:21:13.035Z,47.90
2018-09-04T21:23:41.618Z,47.70
2018-09-04T21:26:09.849Z,47.90
2018-09-04T21:28:38.319Z,47.10
2018-09-04T21:31:06.706Z,47.00
2018-09-04T21:33:34.975Z,46.60
2018-09-04T21:36:03.169Z,46.50
2018-09-04T21:38:31.445Z,46.20
2018-09-04T21:40:59.675Z,46.00
2018-09-04T21:43:28.844Z,45.90
2018-09-04T21:45:58.531Z,46.40
2018-09-04T21:48:27.306Z,46.30
2018-09-04T21:50:56.148Z,46.20
2018-09-04T21:53:24.306Z,46.00
2018-09-04T21:55:52.509Z,45.60
2018-09-04T21:58:20.673Z,46.10
2018-09-04T22:00:48.869Z,46.30
2018-09-04T22:03:17.086Z,46.40
2018-09-04T22:05:45.313Z,46.40
2018-09-04T22:08:13.488Z,46.20
2018-09-04T22:10:42.369Z,46.70
2018-09-04T22:13:11.457Z,46.40
2018-09-04T22:15:39.675Z,46.90
2018-09-04T22:18:07.969Z,46.40
2018-09-04T22:20:36.478Z,46.80
2018-09-04T22:23:05.072Z,46.70
2018-09-04T22:25:34.023Z,47.00
2018-09-04T22:28:02.709Z,46.80
2018-09-04T22:30:30.907Z,46.60
2018-09-04T22:32:59.066Z,46.70
2018-09-04T22:35:27.381Z,46.70
2018-09-04T22:37:55.617Z,47.00
2018-09-04T22:40:23.812Z,47.10
2018-09-04T22:42:52.825Z,46.80
2018-09-04T22:45:20.986Z,47.00
2018-09-04T22:47:49.920Z,46.90
2018-09-04T22:50:23.898Z,46.80
2018-09-04T22:52:52.798Z,47.00
2018-09-04T22:55:21.010Z,47.40
2018-09-04T22:57:49.386Z,47.10
2018-09-04T23:00:17.781Z,47.40
2018-09-04T23:02:46.003Z,47.40
2018-09-04T23:05:14.448Z,47.60
2018-09-04T23:07:42.906Z,47.70
2018-09-04T23:10:11.270Z,47.50
2018-09-04T23:12:39.437Z,47.70
2018-09-04T23:15:07.689Z,47.20
2018-09-04T23:17:35.958Z,47.40
2018-09-04T23:20:04.845Z,47.50
2018-09-04T23:22:33.700Z,47.60
2018-09-04T23:25:01.915Z,47.80
2018-09-04T23:27:30.171Z,47.80
2018-09-04T23:29:58.478Z,48.00
2018-09-04T23:32:26.760Z,47.60
2018-09-04T23:34:54.955Z,47.70
2018-09-04T23:37:23.110Z,48.70
2018-09-04T23:39:51.290Z,49.30
2018-09-04T23:42:20.385Z,49.10
2018-09-04T23:44:48.649Z,49.40
2018-09-04T23:47:16.858Z,49.40
2018-09-04T23:49:45.055Z,49.30
2018-09-04T23:52:13.291Z,49.10
2018-09-04T23:54:41.611Z,49.00
2018-09-04T23:57:09.884Z,49.30
2018-09-04T23:59:38.289Z,49.20
